sensor_id;sensor_type;location;lat;lon;timestamp;P1;durP1;ratioP1;P2;durP2;ratioP2
23206;SDS011;11773;52.570;13.052;2023-09-19T00:00:58;0.60;;;0.60;;
23206;SDS011;11773;52.570;13.052;2023-09-19T00:03:28;0.73;;;0.73;;
23206;SDS011;11773;52.570;13.052;2023-09-19T00:05:58;0.60;;;0.60;;
23206;SDS011;11773;52.570;13.052;2023-09-19T00:08:28;0.63;;;0.63;;
23206;SDS011;11773;52.570;13.052;2023-09-19T00:11:00;0.67;;;0.67;;
23206;SDS011;11773;52.570;13.052;2023-09-19T00:13:33;0.40;;;0.40;;
23206;SDS011;11773;52.570;13.052;2023-09-19T00:16:10;0.60;;;0.60;;
23206;SDS011;11773;52.570;13.052;2023-09-19T00:18:41;0.60;;;0.50;;
23206;SDS011;11773;52.570;13.052;2023-09-19T00:21:11;0.60;;;0.50;;
23206;SDS011;11773;52.570;13.052;2023-09-19T00:23:42;0.60;;;0.57;;
23206;SDS011;11773;52.570;13.052;2023-09-19T00:26:11;0.40;;;0.40;;
23206;SDS011;11773;52.570;13.052;2023-09-19T00:28:41;0.50;;;0.50;;
23206;SDS011;11773;52.570;13.052;2023-09-19T00:31:11;0.70;;;0.70;;
23206;SDS011;11773;52.570;13.052;2023-09-19T00:33:40;0.40;;;0.40;;
23206;SDS011;11773;52.570;13.052;2023-09-19T00:36:10;0.50;;;0.50;;
23206;SDS011;11773;52.570;13.052;2023-09-19T00:38:41;0.30;;;0.30;;
23206;SDS011;11773;52.570;13.052;2023-09-19T00:41:11;0.70;;;0.40;;
23206;SDS011;11773;52.570;13.052;2023-09-19T00:43:41;0.63;;;0.60;;
23206;SDS011;11773;52.570;13.052;2023-09-19T00:46:10;0.60;;;0.60;;
23206;SDS011;11773;52.570;13.052;2023-09-19T00:48:41;0.40;;;0.40;;
23206;SDS011;11773;52.570;13.052;2023-09-19T00:51:12;0.43;;;0.40;;
23206;SDS011;11773;52.570;13.052;2023-09-19T00:53:44;0.67;;;0.30;;
23206;SDS011;11773;52.570;13.052;2023-09-19T00:56:14;0.30;;;0.30;;
23206;SDS011;11773;52.570;13.052;2023-09-19T00:58:46;0.47;;;0.47;;
23206;SDS011;11773;52.570;13.052;2023-09-19T01:01:16;0.30;;;0.30;;
23206;SDS011;11773;52.570;13.052;2023-09-19T01:03:47;0.47;;;0.40;;
23206;SDS011;11773;52.570;13.052;2023-09-19T01:06:17;0.93;;;0.50;;
23206;SDS011;11773;52.570;13.052;2023-09-19T01:08:47;0.73;;;0.50;;
23206;SDS011;11773;52.570;13.052;2023-09-19T01:11:28;0.37;;;0.37;;
23206;SDS011;11773;52.570;13.052;2023-09-19T01:14:03;0.37;;;0.37;;
23206;SDS011;11773;52.570;13.052;2023-09-19T01:16:45;0.33;;;0.30;;
23206;SDS011;11773;52.570;13.052;2023-09-19T01:22:11;0.30;;;0.30;;
23206;SDS011;11773;52.570;13.052;2023-09-19T01:25:07;0.73;;;0.40;;
23206;SDS011;11773;52.570;13.052;2023-09-19T01:30:51;0.30;;;0.30;;
23206;SDS011;11773;52.570;13.052;2023-09-19T01:33:25;0.40;;;0.40;;
23206;SDS011;11773;52.570;13.052;2023-09-19T01:35:57;0.50;;;0.50;;
23206;SDS011;11773;52.570;13.052;2023-09-19T01:38:26;0.40;;;0.40;;
23206;SDS011;11773;52.570;13.052;2023-09-19T01:41:04;0.50;;;0.50;;
23206;SDS011;11773;52.570;13.052;2023-09-19T01:43:41;0.33;;;0.33;;
23206;SDS011;11773;52.570;13.052;2023-09-19T01:46:14;0.30;;;0.30;;
23206;SDS011;11773;52.570;13.052;2023-09-19T01:48:58;0.40;;;0.40;;
23206;SDS011;11773;52.570;13.052;2023-09-19T01:51:54;0.30;;;0.30;;
23206;SDS011;11773;52.570;13.052;2023-09-19T01:54:48;0.50;;;0.40;;
23206;SDS011;11773;52.570;13.052;2023-09-19T01:57:22;0.40;;;0.40;;
23206;SDS011;11773;52.570;13.052;2023-09-19T02:00:00;0.40;;;0.40;;
23206;SDS011;11773;52.570;13.052;2023-09-19T02:02:36;0.30;;;0.30;;
23206;SDS011;11773;52.570;13.052;2023-09-19T02:05:10;1.03;;;0.40;;
23206;SDS011;11773;52.570;13.052;2023-09-19T02:07:40;0.40;;;0.40;;
23206;SDS011;11773;52.570;13.052;2023-09-19T02:10:10;0.23;;;0.23;;
23206;SDS011;11773;52.570;13.052;2023-09-19T02:12:41;0.60;;;0.60;;
23206;SDS011;11773;52.570;13.052;2023-09-19T02:15:10;0.53;;;0.53;;
23206;SDS011;11773;52.570;13.052;2023-09-19T02:17:42;0.33;;;0.33;;
23206;SDS011;11773;52.570;13.052;2023-09-19T02:20:13;0.30;;;0.30;;
23206;SDS011;11773;52.570;13.052;2023-09-19T02:22:43;0.30;;;0.30;;
23206;SDS011;11773;52.570;13.052;2023-09-19T02:25:13;0.30;;;0.30;;
23206;SDS011;11773;52.570;13.052;2023-09-19T02:27:42;0.50;;;0.50;;
23206;SDS011;11773;52.570;13.052;2023-09-19T02:30:12;0.83;;;0.40;;
23206;SDS011;11773;52.570;13.052;2023-09-19T02:32:43;0.40;;;0.40;;
23206;SDS011;11773;52.570;13.052;2023-09-19T02:35:13;0.30;;;0.30;;
23206;SDS011;11773;52.570;13.052;2023-09-19T02:37:43;0.20;;;0.20;;
23206;SDS011;11773;52.570;13.052;2023-09-19T02:40:13;0.30;;;0.30;;
23206;SDS011;11773;52.570;13.052;2023-09-19T02:42:47;0.33;;;0.33;;
23206;SDS011;11773;52.570;13.052;2023-09-19T02:45:19;0.50;;;0.40;;
23206;SDS011;11773;52.570;13.052;2023-09-19T02:47:50;0.47;;;0.40;;
23206;SDS011;11773;52.570;13.052;2023-09-19T02:50:20;0.30;;;0.30;;
23206;SDS011;11773;52.570;13.052;2023-09-19T02:52:50;0.33;;;0.33;;
23206;SDS011;11773;52.570;13.052;2023-09-19T02:55:20;0.60;;;0.60;;
23206;SDS011;11773;52.570;13.052;2023-09-19T02:57:49;0.40;;;0.40;;
23206;SDS011;11773;52.570;13.052;2023-09-19T03:00:24;0.37;;;0.37;;
23206;SDS011;11773;52.570;13.052;2023-09-19T03:02:54;0.50;;;0.50;;
23206;SDS011;11773;52.570;13.052;2023-09-19T03:05:27;0.43;;;0.43;;
23206;SDS011;11773;52.570;13.052;2023-09-19T03:07:58;0.50;;;0.50;;
23206;SDS011;11773;52.570;13.052;2023-09-19T03:10:28;0.50;;;0.50;;
23206;SDS011;11773;52.570;13.052;2023-09-19T03:12:58;0.40;;;0.40;;
23206;SDS011;11773;52.570;13.052;2023-09-19T03:15:28;0.40;;;0.40;;
23206;SDS011;11773;52.570;13.052;2023-09-19T03:17:58;0.40;;;0.40;;
23206;SDS011;11773;52.570;13.052;2023-09-19T03:20:28;0.40;;;0.40;;
23206;SDS011;11773;52.570;13.052;2023-09-19T03:22:57;0.40;;;0.40;;
23206;SDS011;11773;52.570;13.052;2023-09-19T03:25:27;0.40;;;0.40;;
23206;SDS011;11773;52.570;13.052;2023-09-19T03:27:57;0.87;;;0.53;;
23206;SDS011;11773;52.570;13.052;2023-09-19T03:30:27;0.43;;;0.43;;
23206;SDS011;11773;52.570;13.052;2023-09-19T03:32:56;0.60;;;0.60;;
23206;SDS011;11773;52.570;13.052;2023-09-19T03:35:26;1.23;;;0.30;;
23206;SDS011;11773;52.570;13.052;2023-09-19T03:37:56;0.30;;;0.30;;
23206;SDS011;11773;52.570;13.052;2023-09-19T03:40:25;0.30;;;0.30;;
23206;SDS011;11773;52.570;13.052;2023-09-19T03:42:55;0.47;;;0.47;;
23206;SDS011;11773;52.570;13.052;2023-09-19T03:45:26;0.37;;;0.37;;
23206;SDS011;11773;52.570;13.052;2023-09-19T03:47:55;0.43;;;0.40;;
23206;SDS011;11773;52.570;13.052;2023-09-19T03:50:25;0.40;;;0.40;;
23206;SDS011;11773;52.570;13.052;2023-09-19T03:52:57;0.57;;;0.57;;
23206;SDS011;11773;52.570;13.052;2023-09-19T03:55:27;0.30;;;0.30;;
23206;SDS011;11773;52.570;13.052;2023-09-19T03:58:00;0.20;;;0.20;;
23206;SDS011;11773;52.570;13.052;2023-09-19T04:00:31;0.30;;;0.30;;
23206;SDS011;11773;52.570;13.052;2023-09-19T04:03:03;0.20;;;0.20;;
23206;SDS011;11773;52.570;13.052;2023-09-19T04:05:34;0.30;;;0.30;;
23206;SDS011;11773;52.570;13.052;2023-09-19T04:08:03;0.57;;;0.40;;
23206;SDS011;11773;52.570;13.052;2023-09-19T04:10:33;0.30;;;0.30;;
23206;SDS011;11773;52.570;13.052;2023-09-19T04:13:03;0.40;;;0.30;;
23206;SDS011;11773;52.570;13.052;2023-09-19T04:15:34;0.40;;;0.40;;
23206;SDS011;11773;52.570;13.052;2023-09-19T04:18:04;0.30;;;0.30;;
23206;SDS011;11773;52.570;13.052;2023-09-19T04:20:33;0.23;;;0.23;;
23206;SDS011;11773;52.570;13.052;2023-09-19T04:23:03;0.40;;;0.40;;
23206;SDS011;11773;52.570;13.052;2023-09-19T04:25:33;0.30;;;0.30;;
23206;SDS011;11773;52.570;13.052;2023-09-19T04:28:02;0.30;;;0.30;;
23206;SDS011;11773;52.570;13.052;2023-09-19T04:30:33;0.30;;;0.30;;
23206;SDS011;11773;52.570;13.052;2023-09-19T04:33:03;0.60;;;0.37;;
23206;SDS011;11773;52.570;13.052;2023-09-19T04:35:34;0.50;;;0.50;;
23206;SDS011;11773;52.570;13.052;2023-09-19T04:38:05;0.30;;;0.30;;
23206;SDS011;11773;52.570;13.052;2023-09-19T04:40:35;0.40;;;0.40;;
23206;SDS011;11773;52.570;13.052;2023-09-19T04:43:06;0.40;;;0.40;;
23206;SDS011;11773;52.570;13.052;2023-09-19T04:45:35;0.57;;;0.57;;
23206;SDS011;11773;52.570;13.052;2023-09-19T04:48:10;0.50;;;0.50;;
23206;SDS011;11773;52.570;13.052;2023-09-19T04:50:41;0.83;;;0.40;;
23206;SDS011;11773;52.570;13.052;2023-09-19T04:53:11;0.40;;;0.40;;
23206;SDS011;11773;52.570;13.052;2023-09-19T04:55:40;0.40;;;0.40;;
23206;SDS011;11773;52.570;13.052;2023-09-19T04:58:10;0.50;;;0.50;;
23206;SDS011;11773;52.570;13.052;2023-09-19T05:00:39;0.50;;;0.50;;
23206;SDS011;11773;52.570;13.052;2023-09-19T05:03:09;0.87;;;0.77;;
23206;SDS011;11773;52.570;13.052;2023-09-19T05:05:39;0.50;;;0.50;;
23206;SDS011;11773;52.570;13.052;2023-09-19T05:08:09;0.33;;;0.33;;
23206;SDS011;11773;52.570;13.052;2023-09-19T05:10:41;0.30;;;0.30;;
23206;SDS011;11773;52.570;13.052;2023-09-19T05:13:10;0.33;;;0.33;;
23206;SDS011;11773;52.570;13.052;2023-09-19T05:15:40;0.30;;;0.30;;
23206;SDS011;11773;52.570;13.052;2023-09-19T05:18:10;0.40;;;0.40;;
23206;SDS011;11773;52.570;13.052;2023-09-19T05:20:39;0.53;;;0.40;;
23206;SDS011;11773;52.570;13.052;2023-09-19T05:23:10;0.47;;;0.47;;
23206;SDS011;11773;52.570;13.052;2023-09-19T05:25:40;0.60;;;0.50;;
23206;SDS011;11773;52.570;13.052;2023-09-19T05:28:10;0.50;;;0.50;;
23206;SDS011;11773;52.570;13.052;2023-09-19T05:30:41;0.30;;;0.30;;
23206;SDS011;11773;52.570;13.052;2023-09-19T05:33:12;0.20;;;0.20;;
23206;SDS011;11773;52.570;13.052;2023-09-19T05:35:42;0.40;;;0.40;;
23206;SDS011;11773;52.570;13.052;2023-09-19T05:38:14;0.40;;;0.40;;
23206;SDS011;11773;52.570;13.052;2023-09-19T05:40:45;0.40;;;0.40;;
23206;SDS011;11773;52.570;13.052;2023-09-19T05:43:15;0.30;;;0.30;;
23206;SDS011;11773;52.570;13.052;2023-09-19T05:45:45;0.60;;;0.60;;
23206;SDS011;11773;52.570;13.052;2023-09-19T05:48:15;0.57;;;0.57;;
23206;SDS011;11773;52.570;13.052;2023-09-19T05:50:45;0.40;;;0.40;;
23206;SDS011;11773;52.570;13.052;2023-09-19T05:53:15;0.40;;;0.40;;
23206;SDS011;11773;52.570;13.052;2023-09-19T05:55:45;0.50;;;0.50;;
23206;SDS011;11773;52.570;13.052;2023-09-19T05:58:16;0.40;;;0.40;;
23206;SDS011;11773;52.570;13.052;2023-09-19T06:00:47;0.40;;;0.40;;
23206;SDS011;11773;52.570;13.052;2023-09-19T06:03:16;0.40;;;0.40;;
23206;SDS011;11773;52.570;13.052;2023-09-19T06:05:47;0.60;;;0.57;;
23206;SDS011;11773;52.570;13.052;2023-09-19T06:08:18;0.40;;;0.40;;
23206;SDS011;11773;52.570;13.052;2023-09-19T06:10:48;0.50;;;0.50;;
23206;SDS011;11773;52.570;13.052;2023-09-19T06:13:19;0.50;;;0.50;;
23206;SDS011;11773;52.570;13.052;2023-09-19T06:15:49;0.40;;;0.40;;
23206;SDS011;11773;52.570;13.052;2023-09-19T06:18:18;0.67;;;0.67;;
23206;SDS011;11773;52.570;13.052;2023-09-19T06:20:48;0.40;;;0.40;;
23206;SDS011;11773;52.570;13.052;2023-09-19T06:23:18;0.80;;;0.77;;
23206;SDS011;11773;52.570;13.052;2023-09-19T06:25:51;0.90;;;0.80;;
23206;SDS011;11773;52.570;13.052;2023-09-19T06:28:21;0.77;;;0.77;;
23206;SDS011;11773;52.570;13.052;2023-09-19T06:30:51;1.37;;;0.80;;
23206;SDS011;11773;52.570;13.052;2023-09-19T06:33:21;1.00;;;0.70;;
23206;SDS011;11773;52.570;13.052;2023-09-19T06:35:50;1.10;;;1.00;;
23206;SDS011;11773;52.570;13.052;2023-09-19T06:38:22;0.87;;;0.80;;
23206;SDS011;11773;52.570;13.052;2023-09-19T06:40:51;1.33;;;0.90;;
23206;SDS011;11773;52.570;13.052;2023-09-19T06:43:22;0.80;;;0.80;;
23206;SDS011;11773;52.570;13.052;2023-09-19T06:45:51;1.00;;;0.90;;
23206;SDS011;11773;52.570;13.052;2023-09-19T06:48:23;1.23;;;0.93;;
23206;SDS011;11773;52.570;13.052;2023-09-19T06:50:53;0.97;;;0.90;;
23206;SDS011;11773;52.570;13.052;2023-09-19T06:53:32;1.13;;;0.90;;
23206;SDS011;11773;52.570;13.052;2023-09-19T06:56:03;0.73;;;0.73;;
23206;SDS011;11773;52.570;13.052;2023-09-19T06:58:33;1.60;;;0.90;;
23206;SDS011;11773;52.570;13.052;2023-09-19T07:01:04;1.00;;;1.00;;
23206;SDS011;11773;52.570;13.052;2023-09-19T07:03:33;0.67;;;0.67;;
23206;SDS011;11773;52.570;13.052;2023-09-19T07:06:03;2.00;;;1.00;;
23206;SDS011;11773;52.570;13.052;2023-09-19T07:08:34;1.07;;;1.00;;
23206;SDS011;11773;52.570;13.052;2023-09-19T07:11:05;0.70;;;0.70;;
23206;SDS011;11773;52.570;13.052;2023-09-19T07:13:35;0.60;;;0.60;;
23206;SDS011;11773;52.570;13.052;2023-09-19T07:16:05;0.73;;;0.50;;
23206;SDS011;11773;52.570;13.052;2023-09-19T07:18:37;0.60;;;0.60;;
23206;SDS011;11773;52.570;13.052;2023-09-19T07:21:07;0.83;;;0.80;;
23206;SDS011;11773;52.570;13.052;2023-09-19T07:23:38;1.03;;;1.00;;
23206;SDS011;11773;52.570;13.052;2023-09-19T07:26:08;1.17;;;1.07;;
23206;SDS011;11773;52.570;13.052;2023-09-19T07:28:37;1.47;;;1.27;;
23206;SDS011;11773;52.570;13.052;2023-09-19T07:31:07;1.20;;;1.07;;
23206;SDS011;11773;52.570;13.052;2023-09-19T07:33:37;1.30;;;1.20;;
23206;SDS011;11773;52.570;13.052;2023-09-19T07:36:09;1.87;;;1.20;;
23206;SDS011;11773;52.570;13.052;2023-09-19T07:38:43;1.13;;;1.10;;
23206;SDS011;11773;52.570;13.052;2023-09-19T07:41:12;1.23;;;0.83;;
23206;SDS011;11773;52.570;13.052;2023-09-19T07:43:42;1.70;;;1.37;;
23206;SDS011;11773;52.570;13.052;2023-09-19T07:46:12;1.53;;;1.13;;
23206;SDS011;11773;52.570;13.052;2023-09-19T07:48:41;1.30;;;1.07;;
23206;SDS011;11773;52.570;13.052;2023-09-19T07:51:13;1.60;;;1.37;;
23206;SDS011;11773;52.570;13.052;2023-09-19T07:53:43;1.17;;;1.07;;
23206;SDS011;11773;52.570;13.052;2023-09-19T07:56:13;1.00;;;1.00;;
23206;SDS011;11773;52.570;13.052;2023-09-19T07:58:43;1.90;;;1.43;;
23206;SDS011;11773;52.570;13.052;2023-09-19T08:01:12;1.00;;;0.90;;
23206;SDS011;11773;52.570;13.052;2023-09-19T08:03:43;1.13;;;1.10;;
23206;SDS011;11773;52.570;13.052;2023-09-19T08:06:13;0.83;;;0.83;;
23206;SDS011;11773;52.570;13.052;2023-09-19T08:08:43;1.00;;;0.97;;
23206;SDS011;11773;52.570;13.052;2023-09-19T08:11:13;1.27;;;1.17;;
23206;SDS011;11773;52.570;13.052;2023-09-19T08:13:44;0.90;;;0.90;;
23206;SDS011;11773;52.570;13.052;2023-09-19T08:16:16;1.00;;;1.00;;
23206;SDS011;11773;52.570;13.052;2023-09-19T08:18:47;1.30;;;1.13;;
23206;SDS011;11773;52.570;13.052;2023-09-19T08:21:19;1.33;;;1.23;;
23206;SDS011;11773;52.570;13.052;2023-09-19T08:23:50;1.47;;;1.27;;
23206;SDS011;11773;52.570;13.052;2023-09-19T08:26:20;1.20;;;1.10;;
23206;SDS011;11773;52.570;13.052;2023-09-19T08:28:51;1.57;;;1.30;;
23206;SDS011;11773;52.570;13.052;2023-09-19T08:31:22;1.23;;;1.17;;
23206;SDS011;11773;52.570;13.052;2023-09-19T08:33:53;1.23;;;1.10;;
23206;SDS011;11773;52.570;13.052;2023-09-19T08:36:24;1.80;;;1.40;;
23206;SDS011;11773;52.570;13.052;2023-09-19T08:38:53;1.87;;;1.57;;
23206;SDS011;11773;52.570;13.052;2023-09-19T08:41:23;1.90;;;1.40;;
23206;SDS011;11773;52.570;13.052;2023-09-19T08:43:52;1.90;;;1.33;;
23206;SDS011;11773;52.570;13.052;2023-09-19T08:46:22;1.50;;;1.20;;
23206;SDS011;11773;52.570;13.052;2023-09-19T08:48:57;2.70;;;1.50;;
23206;SDS011;11773;52.570;13.052;2023-09-19T08:51:43;1.30;;;1.20;;
23206;SDS011;11773;52.570;13.052;2023-09-19T08:54:22;1.33;;;1.23;;
23206;SDS011;11773;52.570;13.052;2023-09-19T08:56:53;1.40;;;1.30;;
23206;SDS011;11773;52.570;13.052;2023-09-19T08:59:24;1.03;;;1.00;;
23206;SDS011;11773;52.570;13.052;2023-09-19T09:01:56;1.40;;;1.30;;
23206;SDS011;11773;52.570;13.052;2023-09-19T09:04:26;1.30;;;1.20;;
23206;SDS011;11773;52.570;13.052;2023-09-19T09:06:57;1.30;;;1.20;;
23206;SDS011;11773;52.570;13.052;2023-09-19T09:09:28;2.90;;;1.80;;
23206;SDS011;11773;52.570;13.052;2023-09-19T09:11:58;1.60;;;1.47;;
23206;SDS011;11773;52.570;13.052;2023-09-19T09:14:29;1.40;;;1.30;;
23206;SDS011;11773;52.570;13.052;2023-09-19T09:17:00;1.47;;;1.37;;
23206;SDS011;11773;52.570;13.052;2023-09-19T09:19:31;1.73;;;1.63;;
23206;SDS011;11773;52.570;13.052;2023-09-19T09:22:07;1.30;;;1.20;;
23206;SDS011;11773;52.570;13.052;2023-09-19T09:24:50;1.70;;;1.60;;
23206;SDS011;11773;52.570;13.052;2023-09-19T09:27:23;1.47;;;1.30;;
23206;SDS011;11773;52.570;13.052;2023-09-19T09:29:53;1.27;;;1.00;;
23206;SDS011;11773;52.570;13.052;2023-09-19T09:32:28;1.47;;;1.37;;
23206;SDS011;11773;52.570;13.052;2023-09-19T09:34:59;2.00;;;1.63;;
23206;SDS011;11773;52.570;13.052;2023-09-19T09:37:31;1.67;;;1.23;;
23206;SDS011;11773;52.570;13.052;2023-09-19T09:40:02;1.50;;;1.40;;
23206;SDS011;11773;52.570;13.052;2023-09-19T09:42:46;1.50;;;1.40;;
23206;SDS011;11773;52.570;13.052;2023-09-19T09:45:21;2.80;;;1.60;;
23206;SDS011;11773;52.570;13.052;2023-09-19T09:47:56;1.63;;;1.53;;
23206;SDS011;11773;52.570;13.052;2023-09-19T09:50:32;2.43;;;1.50;;
23206;SDS011;11773;52.570;13.052;2023-09-19T09:53:19;1.43;;;1.33;;
23206;SDS011;11773;52.570;13.052;2023-09-19T09:56:04;1.87;;;1.57;;
23206;SDS011;11773;52.570;13.052;2023-09-19T09:58:37;1.70;;;1.60;;
23206;SDS011;11773;52.570;13.052;2023-09-19T10:01:19;1.60;;;1.50;;
23206;SDS011;11773;52.570;13.052;2023-09-19T10:03:51;1.40;;;1.30;;
23206;SDS011;11773;52.570;13.052;2023-09-19T10:06:39;1.63;;;1.50;;
23206;SDS011;11773;52.570;13.052;2023-09-19T10:09:09;1.87;;;1.63;;
23206;SDS011;11773;52.570;13.052;2023-09-19T10:11:46;1.30;;;1.20;;
23206;SDS011;11773;52.570;13.052;2023-09-19T10:14:30;1.93;;;1.50;;
23206;SDS011;11773;52.570;13.052;2023-09-19T10:17:05;1.53;;;1.10;;
23206;SDS011;11773;52.570;13.052;2023-09-19T10:19:42;2.00;;;1.50;;
23206;SDS011;11773;52.570;13.052;2023-09-19T10:22:15;1.60;;;1.33;;
23206;SDS011;11773;52.570;13.052;2023-09-19T10:24:48;1.57;;;1.47;;
23206;SDS011;11773;52.570;13.052;2023-09-19T10:27:22;1.73;;;1.50;;
23206;SDS011;11773;52.570;13.052;2023-09-19T10:29:56;1.30;;;1.20;;
23206;SDS011;11773;52.570;13.052;2023-09-19T10:32:27;2.10;;;1.47;;
23206;SDS011;11773;52.570;13.052;2023-09-19T10:35:01;1.87;;;1.20;;
23206;SDS011;11773;52.570;13.052;2023-09-19T10:37:34;2.03;;;1.10;;
23206;SDS011;11773;52.570;13.052;2023-09-19T10:40:06;2.27;;;1.40;;
23206;SDS011;11773;52.570;13.052;2023-09-19T10:42:38;2.07;;;1.60;;
23206;SDS011;11773;52.570;13.052;2023-09-19T10:45:12;1.10;;;1.00;;
23206;SDS011;11773;52.570;13.052;2023-09-19T10:47:44;1.17;;;1.07;;
23206;SDS011;11773;52.570;13.052;2023-09-19T10:50:20;1.43;;;1.13;;
23206;SDS011;11773;52.570;13.052;2023-09-19T10:52:51;1.33;;;1.13;;
23206;SDS011;11773;52.570;13.052;2023-09-19T10:55:25;1.40;;;1.30;;
23206;SDS011;11773;52.570;13.052;2023-09-19T10:57:58;1.47;;;1.30;;
23206;SDS011;11773;52.570;13.052;2023-09-19T11:00:28;2.87;;;1.70;;
23206;SDS011;11773;52.570;13.052;2023-09-19T11:03:20;1.40;;;1.10;;
23206;SDS011;11773;52.570;13.052;2023-09-19T11:06:05;2.63;;;1.40;;
23206;SDS011;11773;52.570;13.052;2023-09-19T11:08:56;1.13;;;1.07;;
23206;SDS011;11773;52.570;13.052;2023-09-19T11:11:45;1.93;;;1.67;;
23206;SDS011;11773;52.570;13.052;2023-09-19T11:30:45;2.07;;;0.73;;
23206;SDS011;11773;52.570;13.052;2023-09-19T11:33:17;2.37;;;1.13;;
23206;SDS011;11773;52.570;13.052;2023-09-19T11:46:52;2.23;;;1.20;;
23206;SDS011;11773;52.570;13.052;2023-09-19T11:49:26;1.63;;;1.27;;
23206;SDS011;11773;52.570;13.052;2023-09-19T11:51:59;1.20;;;0.90;;
23206;SDS011;11773;52.570;13.052;2023-09-19T11:54:32;1.30;;;1.20;;
23206;SDS011;11773;52.570;13.052;2023-09-19T11:57:05;1.00;;;1.00;;
23206;SDS011;11773;52.570;13.052;2023-09-19T11:59:39;1.33;;;1.03;;
23206;SDS011;11773;52.570;13.052;2023-09-19T12:02:08;1.63;;;0.97;;
23206;SDS011;11773;52.570;13.052;2023-09-19T12:04:43;1.70;;;1.13;;
23206;SDS011;11773;52.570;13.052;2023-09-19T12:07:15;1.27;;;1.17;;
23206;SDS011;11773;52.570;13.052;2023-09-19T12:09:49;1.40;;;1.20;;
23206;SDS011;11773;52.570;13.052;2023-09-19T12:12:32;1.40;;;1.23;;
23206;SDS011;11773;52.570;13.052;2023-09-19T12:15:04;1.53;;;0.93;;
23206;SDS011;11773;52.570;13.052;2023-09-19T12:17:35;2.00;;;1.30;;
23206;SDS011;11773;52.570;13.052;2023-09-19T12:20:11;1.10;;;1.00;;
23206;SDS011;11773;52.570;13.052;2023-09-19T12:22:41;2.07;;;1.30;;
23206;SDS011;11773;52.570;13.052;2023-09-19T12:25:15;1.27;;;1.10;;
23206;SDS011;11773;52.570;13.052;2023-09-19T12:27:47;2.10;;;1.10;;
23206;SDS011;11773;52.570;13.052;2023-09-19T12:30:21;2.37;;;1.23;;
23206;SDS011;11773;52.570;13.052;2023-09-19T12:32:57;2.27;;;1.10;;
23206;SDS011;11773;52.570;13.052;2023-09-19T12:35:30;1.50;;;1.03;;
23206;SDS011;11773;52.570;13.052;2023-09-19T12:38:06;1.10;;;1.00;;
23206;SDS011;11773;52.570;13.052;2023-09-19T12:40:37;1.20;;;0.70;;
23206;SDS011;11773;52.570;13.052;2023-09-19T12:43:09;1.20;;;1.10;;
23206;SDS011;11773;52.570;13.052;2023-09-19T12:45:42;1.50;;;1.10;;
23206;SDS011;11773;52.570;13.052;2023-09-19T12:48:22;1.17;;;0.90;;
23206;SDS011;11773;52.570;13.052;2023-09-19T12:51:07;0.83;;;0.70;;
23206;SDS011;11773;52.570;13.052;2023-09-19T12:53:43;0.90;;;0.87;;
23206;SDS011;11773;52.570;13.052;2023-09-19T12:56:16;0.93;;;0.73;;
23206;SDS011;11773;52.570;13.052;2023-09-19T12:58:53;1.10;;;0.90;;
23206;SDS011;11773;52.570;13.052;2023-09-19T13:01:26;1.63;;;1.03;;
23206;SDS011;11773;52.570;13.052;2023-09-19T13:06:57;1.50;;;1.10;;
23206;SDS011;11773;52.570;13.052;2023-09-19T13:09:28;0.97;;;0.90;;
23206;SDS011;11773;52.570;13.052;2023-09-19T13:12:03;0.97;;;0.97;;
23206;SDS011;11773;52.570;13.052;2023-09-19T13:14:35;1.33;;;1.00;;
23206;SDS011;11773;52.570;13.052;2023-09-19T13:17:06;0.60;;;0.60;;
23206;SDS011;11773;52.570;13.052;2023-09-19T13:19:44;0.87;;;0.83;;
23206;SDS011;11773;52.570;13.052;2023-09-19T13:22:43;1.10;;;1.00;;
23206;SDS011;11773;52.570;13.052;2023-09-19T13:25:15;0.87;;;0.80;;
23206;SDS011;11773;52.570;13.052;2023-09-19T13:27:48;1.00;;;0.90;;
23206;SDS011;11773;52.570;13.052;2023-09-19T13:30:22;1.10;;;1.00;;
23206;SDS011;11773;52.570;13.052;2023-09-19T13:33:04;1.97;;;1.10;;
23206;SDS011;11773;52.570;13.052;2023-09-19T13:35:38;1.30;;;0.90;;
23206;SDS011;11773;52.570;13.052;2023-09-19T13:38:08;1.17;;;1.00;;
23206;SDS011;11773;52.570;13.052;2023-09-19T13:40:39;1.50;;;1.00;;
23206;SDS011;11773;52.570;13.052;2023-09-19T13:43:09;2.30;;;1.10;;
23206;SDS011;11773;52.570;13.052;2023-09-19T13:45:40;1.23;;;1.13;;
23206;SDS011;11773;52.570;13.052;2023-09-19T13:48:10;1.33;;;1.17;;
23206;SDS011;11773;52.570;13.052;2023-09-19T13:50:40;1.00;;;0.90;;
23206;SDS011;11773;52.570;13.052;2023-09-19T13:53:10;0.77;;;0.67;;
23206;SDS011;11773;52.570;13.052;2023-09-19T13:55:40;0.67;;;0.63;;
23206;SDS011;11773;52.570;13.052;2023-09-19T13:58:09;0.97;;;0.90;;
23206;SDS011;11773;52.570;13.052;2023-09-19T14:00:39;0.90;;;0.90;;
23206;SDS011;11773;52.570;13.052;2023-09-19T14:03:10;0.90;;;0.77;;
23206;SDS011;11773;52.570;13.052;2023-09-19T14:05:41;0.80;;;0.80;;
23206;SDS011;11773;52.570;13.052;2023-09-19T14:08:11;1.20;;;1.20;;
23206;SDS011;11773;52.570;13.052;2023-09-19T14:10:41;1.00;;;0.90;;
23206;SDS011;11773;52.570;13.052;2023-09-19T14:13:10;0.70;;;0.70;;
23206;SDS011;11773;52.570;13.052;2023-09-19T14:15:40;0.73;;;0.73;;
23206;SDS011;11773;52.570;13.052;2023-09-19T14:18:10;1.00;;;0.90;;
23206;SDS011;11773;52.570;13.052;2023-09-19T14:20:40;0.80;;;0.80;;
23206;SDS011;11773;52.570;13.052;2023-09-19T14:23:09;1.27;;;1.10;;
23206;SDS011;11773;52.570;13.052;2023-09-19T14:25:39;1.00;;;0.93;;
23206;SDS011;11773;52.570;13.052;2023-09-19T14:28:09;1.20;;;1.07;;
23206;SDS011;11773;52.570;13.052;2023-09-19T14:30:39;1.13;;;0.93;;
23206;SDS011;11773;52.570;13.052;2023-09-19T14:33:08;1.17;;;1.07;;
23206;SDS011;11773;52.570;13.052;2023-09-19T14:35:38;1.17;;;1.07;;
23206;SDS011;11773;52.570;13.052;2023-09-19T14:38:07;1.23;;;1.13;;
23206;SDS011;11773;52.570;13.052;2023-09-19T14:40:37;0.97;;;0.87;;
23206;SDS011;11773;52.570;13.052;2023-09-19T14:43:07;1.10;;;1.00;;
23206;SDS011;11773;52.570;13.052;2023-09-19T14:45:36;1.10;;;0.90;;
23206;SDS011;11773;52.570;13.052;2023-09-19T14:48:07;0.67;;;0.67;;
23206;SDS011;11773;52.570;13.052;2023-09-19T14:50:38;0.90;;;0.90;;
23206;SDS011;11773;52.570;13.052;2023-09-19T14:53:08;1.17;;;0.90;;
23206;SDS011;11773;52.570;13.052;2023-09-19T14:55:39;0.83;;;0.67;;
23206;SDS011;11773;52.570;13.052;2023-09-19T14:58:10;0.70;;;0.70;;
23206;SDS011;11773;52.570;13.052;2023-09-19T15:00:40;0.70;;;0.70;;
23206;SDS011;11773;52.570;13.052;2023-09-19T15:03:11;0.93;;;0.77;;
23206;SDS011;11773;52.570;13.052;2023-09-19T15:05:45;0.70;;;0.70;;
23206;SDS011;11773;52.570;13.052;2023-09-19T15:08:15;0.77;;;0.77;;
23206;SDS011;11773;52.570;13.052;2023-09-19T15:10:49;1.13;;;0.97;;
23206;SDS011;11773;52.570;13.052;2023-09-19T15:13:20;1.00;;;0.90;;
23206;SDS011;11773;52.570;13.052;2023-09-19T15:15:50;1.80;;;1.07;;
23206;SDS011;11773;52.570;13.052;2023-09-19T15:18:20;1.23;;;0.90;;
23206;SDS011;11773;52.570;13.052;2023-09-19T15:20:50;1.13;;;1.00;;
23206;SDS011;11773;52.570;13.052;2023-09-19T15:23:20;0.70;;;0.70;;
23206;SDS011;11773;52.570;13.052;2023-09-19T15:25:51;0.80;;;0.80;;
23206;SDS011;11773;52.570;13.052;2023-09-19T15:28:21;0.70;;;0.70;;
23206;SDS011;11773;52.570;13.052;2023-09-19T15:30:57;1.60;;;1.50;;
23206;SDS011;11773;52.570;13.052;2023-09-19T15:33:34;0.80;;;0.80;;
23206;SDS011;11773;52.570;13.052;2023-09-19T15:36:07;0.90;;;0.80;;
23206;SDS011;11773;52.570;13.052;2023-09-19T15:38:55;0.90;;;0.90;;